Time;durP1;ratioP1;P1;durP2;ratioP2;P2;SDS_P1;SDS_P2;PMS_P1;PMS_P2;Temp;Humidity;BMP_temperature;BMP_pressure;BME280_temperature;BME280_humidity;BME280_pressure;Samples;Min_cycle;Max_cycle;Signal;HPM_P1;HPM_P2
2021/04/19 00:00:27;;;;;;;22.27;18.73;;;281.60;2227.20;;;;;;5095158;28;20373;-73
2021/04/19 00:02:53;;;;;;;25.80;21.25;;;281.60;2227.20;;;;;;5095133;28;20435;-73
2021/04/19 00:05:20;;;;;;;26.00;21.67;;;281.60;2252.80;;;;;;5095078;28;20545;-69
2021/04/19 00:07:47;;;;;;;21.45;17.67;;;281.60;2252.80;;;;;;5094751;28;20029;-69
2021/04/19 00:10:17;;;;;;;20.25;17.67;;;281.70;2227.20;;;;;;5095154;28;20476;-69
2021/04/19 00:12:44;;;;;;;18.00;15.50;;;281.70;2227.20;;;;;;5095634;28;20468;-73
2021/04/19 00:15:12;;;;;;;17.70;15.27;;;281.60;2227.20;;;;;;5094924;28;20516;-70
2021/04/19 00:17:38;;;;;;;18.45;15.18;;;281.60;2227.20;;;;;;5094942;28;20398;-69
2021/04/19 00:20:07;;;;;;;16.20;14.45;;;281.70;2227.20;;;;;;5094857;28;20455;-68
2021/04/19 00:22:33;;;;;;;15.90;14.20;;;281.70;2227.20;;;;;;5094893;28;20395;-68
2021/04/19 00:25:01;;;;;;;16.73;13.07;;;281.70;2227.20;;;;;;5094956;28;20360;-68
2021/04/19 00:27:27;;;;;;;15.15;11.90;;;281.60;2252.80;;;;;;5094748;28;20334;-69
2021/04/19 00:29:53;;;;;;;15.13;13.25;;;256.90;2252.80;;;;;;5093428;28;20479;-69
2021/04/19 00:32:19;;;;;;;14.88;12.68;;;256.80;2252.80;;;;;;5094560;28;20368;-68
2021/04/19 00:34:46;;;;;;;14.57;12.43;;;256.80;2252.80;;;;;;5094508;28;20371;-69
2021/04/19 00:37:12;;;;;;;15.48;13.02;;;256.70;2252.80;;;;;;5094536;28;20365;-74
2021/04/19 00:39:38;;;;;;;15.05;13.45;;;256.60;2252.80;;;;;;5095050;28;20353;-69
2021/04/19 00:42:05;;;;;;;15.63;13.88;;;256.50;2252.80;;;;;;5094421;28;20421;-69
2021/04/19 00:44:32;;;;;;;15.55;13.93;;;256.60;2252.80;;;;;;5087688;28;20385;-69
2021/04/19 00:46:59;;;;;;;16.63;14.52;;;256.40;2252.80;;;;;;5074060;28;20469;-69
2021/04/19 00:49:26;;;;;;;18.90;15.40;;;256.40;2252.80;;;;;;5074334;28;20407;-69
2021/04/19 00:51:56;;;;;;;17.75;15.18;;;256.20;2252.80;;;;;;5074046;28;20487;-69
2021/04/19 00:54:24;;;;;;;19.00;16.10;;;256.40;2252.80;;;;;;5074069;28;20369;-69
2021/04/19 00:56:51;;;;;;;18.88;15.90;;;256.40;2252.80;;;;;;5073830;28;20415;-69
2021/04/19 00:59:18;;;;;;;18.20;16.25;;;256.40;2252.80;;;;;;5073882;28;20074;-69
2021/04/19 01:01:46;;;;;;;18.00;15.40;;;256.40;2252.80;;;;;;5073931;28;20478;-69
2021/04/19 01:04:12;;;;;;;19.92;17.23;;;256.40;2252.80;;;;;;5073995;28;20350;-69
2021/04/19 01:06:38;;;;;;;18.10;16.17;;;256.30;2252.80;;;;;;5073861;28;20475;-69
2021/04/19 01:09:07;;;;;;;19.80;17.05;;;256.30;2252.80;;;;;;5073733;28;20350;-69
2021/04/19 01:11:33;;;;;;;22.63;17.85;;;256.20;2252.80;;;;;;5073739;28;20466;-69
2021/04/19 01:13:59;;;;;;;21.92;17.95;;;256.20;2252.80;;;;;;5073608;28;20365;-69
2021/04/19 01:16:25;;;;;;;18.95;16.95;;;256.20;2252.80;;;;;;5073678;28;20346;-70
2021/04/19 01:18:52;;;;;;;17.75;15.82;;;256.10;2252.80;;;;;;5073439;28;20521;-69
2021/04/19 01:21:18;;;;;;;21.35;16.13;;;256.10;2252.80;;;;;;5073621;28;20475;-70
2021/04/19 01:23:44;;;;;;;18.95;16.05;;;256.00;2252.80;;;;;;5073579;28;20342;-70
2021/04/19 01:26:10;;;;;;;17.38;15.48;;;256.10;2252.80;;;;;;5073397;28;20028;-73
2021/04/19 01:28:36;;;;;;;18.08;14.70;;;256.00;2252.80;;;;;;5074105;28;20380;-73
2021/04/19 01:31:03;;;;;;;18.92;16.60;;;256.10;2252.80;;;;;;5073524;28;20025;-69
2021/04/19 01:33:29;;;;;;;17.20;15.05;;;256.10;2252.80;;;;;;5073487;28;20368;-69
2021/04/19 01:35:55;;;;;;;15.95;14.30;;;256.10;2252.80;;;;;;5073423;28;20357;-69
2021/04/19 01:38:25;;;;;;;16.48;13.80;;;256.10;2252.80;;;;;;5073403;28;20453;-73
2021/04/19 01:40:55;;;;;;;19.88;14.18;;;256.10;2252.80;;;;;;5073275;28;20403;-69
2021/04/19 01:43:23;;;;;;;16.25;14.00;;;256.00;2252.80;;;;;;5073483;28;20476;-68
2021/04/19 01:45:50;;;;;;;17.02;13.90;;;256.00;2252.80;;;;;;5073081;28;20554;-73
2021/04/19 01:48:20;;;;;;;16.30;14.52;;;256.00;2252.80;;;;;;5073278;28;20368;-69
2021/04/19 01:50:49;;;;;;;18.45;15.13;;;256.10;2252.80;;;;;;5073800;28;20373;-69
2021/04/19 01:53:15;;;;;;;17.52;14.52;;;256.20;2252.80;;;;;;5073302;28;20338;-73
2021/04/19 01:55:41;;;;;;;16.38;13.73;;;256.20;2252.80;;;;;;5073541;28;20373;-69
2021/04/19 01:58:14;;;;;;;16.67;14.70;;;256.20;2252.80;;;;;;5073152;28;20086;-73
2021/04/19 02:00:52;;;;;;;17.40;15.35;;;256.10;2252.80;;;;;;5056113;28;20472;-69
2021/04/19 02:03:48;;;;;;;16.50;14.77;;;256.10;2252.80;;;;;;5073146;28;20457;-73
2021/04/19 02:06:24;;;;;;;17.13;15.32;;;256.10;2252.80;;;;;;5073118;28;20431;-69
2021/04/19 02:09:00;;;;;;;17.23;15.38;;;256.20;2252.80;;;;;;5073398;28;20484;-73
2021/04/19 02:11:51;;;;;;;18.05;15.45;;;256.10;2252.80;;;;;;5073412;28;20480;-73
2021/04/19 02:14:17;;;;;;;16.23;14.02;;;256.00;2252.80;;;;;;5073108;28;20521;-69
2021/04/19 02:17:19;;;;;;;16.65;14.27;;;256.10;2252.80;;;;;;5073596;28;20051;-70
2021/04/19 02:20:02;;;;;;;15.25;13.65;;;256.10;2252.80;;;;;;5073046;28;20373;-69
2021/04/19 02:22:37;;;;;;;13.85;12.32;;;256.20;2252.80;;;;;;5072989;28;20346;-69
2021/04/19 02:25:30;;;;;;;16.60;11.68;;;256.10;2252.80;;;;;;5072951;28;20417;-69
2021/04/19 02:28:03;;;;;;;15.15;10.50;;;256.20;2252.80;;;;;;5073010;28;20526;-70
2021/04/19 02:30:35;;;;;;;13.07;11.68;;;256.20;2252.80;;;;;;5073034;28;20334;-69
2021/04/19 02:33:03;;;;;;;11.02;9.77;;;256.30;2252.80;;;;;;5076828;28;20373;-69
2021/04/19 02:35:33;;;;;;;11.43;10.23;;;256.30;2252.80;;;;;;5076627;28;20027;-68
2021/04/19 02:38:00;;;;;;;11.18;9.85;;;256.40;2252.80;;;;;;5076541;28;20369;-72
2021/04/19 02:40:29;;;;;;;11.73;10.18;;;256.40;2252.80;;;;;;5058643;28;20411;-69
2021/04/19 02:42:56;;;;;;;12.77;11.48;;;256.40;2252.80;;;;;;5076459;28;20365;-69
2021/04/19 02:45:23;;;;;;;13.57;11.60;;;256.40;2252.80;;;;;;5076169;28;20036;-69
2021/04/19 02:47:50;;;;;;;13.15;11.75;;;256.40;2252.80;;;;;;5076450;28;20589;-70
2021/04/19 02:50:21;;;;;;;15.30;12.50;;;256.40;2252.80;;;;;;5076596;28;20395;-69
2021/04/19 02:52:49;;;;;;;15.30;13.45;;;256.60;2252.80;;;;;;5076400;28;20371;-69
2021/04/19 02:55:23;;;;;;;15.13;13.50;;;256.50;2252.80;;;;;;5076185;28;20468;-69
2021/04/19 02:57:54;;;;;;;17.98;14.80;;;256.50;2252.80;;;;;;5076335;28;20457;-69
2021/04/19 03:00:47;;;;;;;15.55;13.85;;;256.50;2252.80;;;;;;5076218;28;20469;-68
2021/04/19 03:03:23;;;;;;;16.63;13.93;;;256.40;2252.80;;;;;;5072553;28;20035;-73
2021/04/19 03:05:50;;;;;;;17.23;15.30;;;256.50;2252.80;;;;;;5076042;28;20486;-69
2021/04/19 03:08:21;;;;;;;16.08;13.63;;;256.40;2252.80;;;;;;5076053;28;20369;-69
2021/04/19 03:10:58;;;;;;;15.48;13.88;;;256.30;2252.80;;;;;;5076064;28;20021;-69
2021/04/19 03:13:27;;;;;;;15.40;13.77;;;256.30;2252.80;;;;;;5076255;28;20388;-69
2021/04/19 03:15:57;;;;;;;15.18;13.18;;;256.30;2252.80;;;;;;5075932;28;20338;-70
2021/04/19 03:18:24;;;;;;;15.25;13.65;;;256.30;2252.80;;;;;;5075817;28;20368;-69
2021/04/19 03:21:16;;;;;;;15.85;14.23;;;256.30;2252.80;;;;;;5075856;28;20540;-69
2021/04/19 03:23:47;;;;;;;14.00;12.50;;;256.30;2252.80;;;;;;5075734;28;20381;-70
2021/04/19 03:26:16;;;;;;;16.10;14.00;;;256.40;2252.80;;;;;;5075662;28;20115;-69
2021/04/19 03:28:47;;;;;;;14.02;12.60;;;256.40;2252.80;;;;;;5075645;28;20428;-73
2021/04/19 03:31:45;;;;;;;16.58;14.60;;;256.50;2252.80;;;;;;5076003;28;20380;-73
2021/04/19 03:34:13;;;;;;;15.95;13.13;;;256.60;2252.80;;;;;;5062118;28;20380;-70
2021/04/19 03:36:42;;;;;;;16.50;13.02;;;256.40;2252.80;;;;;;5057560;28;20368;-69
2021/04/19 03:39:10;;;;;;;17.75;13.60;;;256.40;2252.80;;;;;;5075798;28;20450;-69
2021/04/19 03:41:41;;;;;;;18.70;15.48;;;256.40;2252.80;;;;;;5076243;28;20388;-69
2021/04/19 03:44:11;;;;;;;15.32;13.73;;;256.40;2252.80;;;;;;5075129;28;20441;-73
2021/04/19 03:46:41;;;;;;;15.70;13.85;;;256.40;2252.80;;;;;;5075397;28;20425;-71
2021/04/19 03:49:30;;;;;;;16.90;14.95;;;256.40;2252.80;;;;;;5075169;28;20465;-69
2021/04/19 03:52:00;;;;;;;17.50;15.63;;;256.40;2252.80;;;;;;5075182;28;20024;-69
2021/04/19 03:54:32;;;;;;;17.73;15.13;;;256.30;2252.80;;;;;;5075159;28;20442;-69
2021/04/19 03:57:03;;;;;;;15.48;13.88;;;256.30;2252.80;;;;;;5075121;28;20396;-68
2021/04/19 03:59:31;;;;;;;17.60;15.18;;;256.30;2252.80;;;;;;5075951;28;20420;-68
2021/04/19 04:02:03;;;;;;;17.45;15.18;;;256.20;2252.80;;;;;;5075030;28;20510;-69
2021/04/19 04:04:30;;;;;;;15.68;14.00;;;256.30;2252.80;;;;;;5074920;28;20369;-69
2021/04/19 04:06:58;;;;;;;15.40;13.80;;;256.30;2252.80;;;;;;5056972;28;20024;-69
2021/04/19 04:09:25;;;;;;;16.00;13.70;;;256.30;2252.80;;;;;;5074822;28;20597;-69
2021/04/19 04:11:51;;;;;;;16.70;15.00;;;256.20;2252.80;;;;;;5074847;28;20432;-73
2021/04/19 04:14:17;;;;;;;17.08;15.20;;;256.10;2252.80;;;;;;5074738;28;20369;-69
2021/04/19 04:16:44;;;;;;;18.15;15.50;;;256.10;2252.80;;;;;;5074657;28;20351;-73
2021/04/19 04:19:11;;;;;;;19.92;16.42;;;256.10;2252.80;;;;;;5074644;28;20390;-68
2021/04/19 04:21:38;;;;;;;17.15;15.32;;;256.10;2252.80;;;;;;5074581;28;20369;-72
2021/04/19 04:24:05;;;;;;;20.13;17.27;;;256.10;2252.80;;;;;;5074497;28;20354;-69
2021/04/19 04:26:34;;;;;;;20.00;17.67;;;256.20;2252.80;;;;;;5074391;28;20365;-69
2021/04/19 04:29:01;;;;;;;24.20;18.98;;;256.20;2252.80;;;;;;5074491;28;20365;-68
2021/04/19 04:31:28;;;;;;;24.55;21.17;;;256.20;2252.80;;;;;;5074434;28;20525;-70
2021/04/19 04:33:54;;;;;;;25.98;20.90;;;256.10;2252.80;;;;;;5074435;28;20519;-73
2021/04/19 04:36:21;;;;;;;26.63;22.17;;;256.20;2252.80;;;;;;5074454;28;20472;-73
2021/04/19 04:38:47;;;;;;;29.25;24.60;;;256.10;2252.80;;;;;;5074337;28;20460;-72
2021/04/19 04:41:13;;;;;;;25.52;22.05;;;256.10;2252.80;;;;;;5074270;28;20373;-71
2021/04/19 04:43:41;;;;;;;28.98;24.10;;;256.10;2252.80;;;;;;5074461;28;20024;-68
2021/04/19 04:46:19;;;;;;;54.53;37.30;;;256.00;2252.80;;;;;;5074042;28;20378;-69
2021/04/19 04:49:06;;;;;;;30.52;25.15;;;256.10;2252.80;;;;;;5074357;28;20365;-70
2021/04/19 04:51:34;;;;;;;27.63;24.00;;;256.10;2252.80;;;;;;5074077;28;20338;-69
2021/04/19 04:54:09;;;;;;;31.95;28.48;;;256.10;2252.80;;;;;;5073431;28;20528;-73
2021/04/19 04:56:40;;;;;;;32.50;26.90;;;256.10;2252.80;;;;;;5074584;28;20463;-69
2021/04/19 04:59:07;;;;;;;30.73;27.27;;;256.10;2252.80;;;;;;5074088;28;20364;-69
2021/04/19 05:01:35;;;;;;;32.22;26.63;;;256.20;2252.80;;;;;;5073857;28;20372;-69
2021/04/19 05:04:03;;;;;;;31.88;27.17;;;256.10;2252.80;;;;;;5073746;28;20578;-69
2021/04/19 05:06:30;;;;;;;31.45;27.05;;;256.30;2252.80;;;;;;5074020;28;20365;-72
2021/04/19 05:08:58;;;;;;;30.55;25.92;;;256.30;2252.80;;;;;;5074021;28;20437;-69
2021/04/19 05:11:24;;;;;;;29.88;25.15;;;256.40;2252.80;;;;;;5073767;28;20481;-68
2021/04/19 05:13:50;;;;;;;31.42;25.73;;;256.40;2252.80;;;;;;5074061;28;20380;-68
2021/04/19 05:16:27;;;;;;;29.85;25.50;;;256.40;2252.80;;;;;;5073707;28;20365;-69
2021/04/19 05:18:54;;;;;;;31.02;24.38;;;256.30;2252.80;;;;;;5073625;28;20423;-68
2021/04/19 05:21:20;;;;;;;30.73;25.30;;;256.40;2252.80;;;;;;5073896;28;20357;-68
2021/04/19 05:23:46;;;;;;;28.23;24.92;;;256.30;2252.80;;;;;;5073602;28;20365;-68
2021/04/19 05:26:12;;;;;;;32.53;26.42;;;256.40;2252.80;;;;;;5073472;28;20461;-68
2021/04/19 05:28:42;;;;;;;36.20;28.67;;;256.50;2252.80;;;;;;5073516;28;20377;-68
2021/04/19 05:31:09;;;;;;;34.25;27.60;;;256.50;2252.80;;;;;;5073758;28;20415;-69
2021/04/19 05:33:36;;;;;;;32.60;26.83;;;256.50;2252.80;;;;;;5073722;28;20023;-69
2021/04/19 05:36:11;;;;;;;32.80;26.70;;;256.60;2252.80;;;;;;5073995;28;20334;-69
2021/04/19 05:38:38;;;;;;;36.50;28.10;;;256.50;2252.80;;;;;;5073300;28;20373;-75
2021/04/19 05:41:05;;;;;;;39.10;30.48;;;256.50;2252.80;;;;;;5073402;28;20423;-68
2021/04/19 05:43:31;;;;;;;38.58;30.40;;;256.50;2252.80;;;;;;5073282;28;20342;-68
2021/04/19 05:45:59;;;;;;;36.63;30.00;;;256.50;2252.80;;;;;;5073134;28;20504;-69
2021/04/19 05:48:25;;;;;;;39.42;31.35;;;256.40;2252.80;;;;;;5073274;28;20028;-69
2021/04/19 05:50:56;;;;;;;40.40;31.73;;;256.40;2252.80;;;;;;5073334;28;20389;-69
2021/04/19 05:53:23;;;;;;;43.90;34.53;;;256.30;2252.80;;;;;;5073292;28;20443;-72
2021/04/19 05:55:55;;;;;;;45.22;35.42;;;256.40;2252.80;;;;;;5073176;28;20369;-69
2021/04/19 05:58:29;;;;;;;45.42;35.28;;;256.30;2252.80;;;;;;5074067;28;20417;-69
2021/04/19 06:01:06;;;;;;;48.45;35.65;;;256.40;2252.80;;;;;;5073781;28;20454;-69
2021/04/19 06:03:38;;;;;;;48.50;36.78;;;256.40;2252.80;;;;;;5073229;28;20342;-73
2021/04/19 06:06:28;;;;;;;52.05;38.95;;;256.50;2252.80;;;;;;5073867;28;20372;-73
2021/04/19 06:09:05;;;;;;;55.58;40.60;;;256.50;2252.80;;;;;;5077303;28;20544;-68
2021/04/19 06:14:56;;;;;;;49.97;38.28;;;256.60;2252.80;;;;;;5077207;28;20074;-72
2021/04/19 06:17:24;;;;;;;53.28;42.13;;;256.50;2252.80;;;;;;5076940;28;20377;-75
2021/04/19 06:19:50;;;;;;;59.22;42.17;;;256.60;2252.80;;;;;;5076925;28;20407;-71
2021/04/19 06:22:18;;;;;;;60.83;44.65;;;256.70;2252.80;;;;;;5077019;28;20396;-70
2021/04/19 06:24:50;;;;;;;57.33;44.58;;;256.60;2252.80;;;;;;5077241;28;20350;-71
2021/04/19 06:27:24;;;;;;;58.55;43.75;;;256.60;2252.80;;;;;;5077068;28;20488;-77
2021/04/19 06:29:50;;;;;;;;;;;256.70;2252.80;;;;;;5077427;28;20417;-79
2021/04/19 06:32:18;;;;;;;48.60;37.08;;;256.90;2252.80;;;;;;5077245;28;20253;-73
2021/04/19 06:34:44;;;;;;;62.10;44.63;;;256.80;2252.80;;;;;;5076580;28;20465;-74
2021/04/19 06:37:10;;;;;;;48.20;35.65;;;256.80;2252.80;;;;;;5058818;28;20403;-75
2021/04/19 06:39:36;;;;;;;71.10;52.78;;;256.70;2252.80;;;;;;5076698;28;20021;-69
2021/04/19 06:42:03;;;;;;;137.23;122.10;;;256.80;2252.80;;;;;;5076964;28;20378;-77
2021/04/19 06:44:30;;;;;;;72.38;54.72;;;256.80;2252.80;;;;;;5076799;28;20384;-67
2021/04/19 06:46:58;;;;;;;54.95;40.17;;;256.90;2252.80;;;;;;5076462;28;20400;-70
2021/04/19 06:49:27;;;;;;;45.63;34.65;;;256.80;2252.80;;;;;;5076497;28;20396;-68
2021/04/19 06:51:57;;;;;;;44.45;34.72;;;256.60;2252.80;;;;;;5076686;28;20330;-72
2021/04/19 06:54:26;;;;;;;45.63;34.50;;;256.60;2252.80;;;;;;5076419;28;20021;-73
2021/04/19 06:56:55;;;;;;;42.75;34.42;;;256.80;2252.80;;;;;;5076209;28;20474;-69
2021/04/19 06:59:23;;;;;;;47.15;37.30;;;256.90;2252.80;;;;;;5076554;28;20350;-68
2021/04/19 07:01:52;;;;;;;43.15;34.47;;;281.60;2278.40;;;;;;5076168;28;20361;-69
2021/04/19 07:04:23;;;;;;;41.88;32.17;;;281.60;2278.40;;;;;;5076075;28;20365;-68
2021/04/19 07:06:50;;;;;;;43.05;35.67;;;281.60;2278.40;;;;;;5076422;28;20368;-72
2021/04/19 07:09:28;;;;;;;82.85;59.55;;;256.90;2252.80;;;;;;5076406;28;20502;-70
2021/04/19 07:12:17;;;;;;;40.38;32.13;;;281.60;2278.40;;;;;;5076079;28;20484;-75
2021/04/19 07:14:48;;;;;;;49.45;38.50;;;281.60;2278.40;;;;;;5075973;28;20640;-71
2021/04/19 07:17:14;;;;;;;50.25;37.97;;;281.60;2278.40;;;;;;5075562;28;20469;-71
2021/04/19 07:19:40;;;;;;;47.22;36.17;;;281.70;2278.40;;;;;;5075943;28;20445;-74
2021/04/19 07:22:06;;;;;;;42.17;32.55;;;281.80;2278.40;;;;;;5075910;28;20376;-71
2021/04/19 07:24:34;;;;;;;102.55;82.78;;;281.90;2278.40;;;;;;5075751;28;20115;-69
2021/04/19 07:27:05;;;;;;;140.48;63.20;;;281.90;2278.40;;;;;;5076141;28;20401;-73
2021/04/19 07:29:31;;;;;;;64.93;42.80;;;282.00;2278.40;;;;;;5057824;28;20354;-68
2021/04/19 07:31:58;;;;;;;57.08;51.00;;;282.10;2252.80;;;;;;5075711;28;20431;-72
2021/04/19 07:34:26;;;;;;;37.35;30.58;;;281.90;2278.40;;;;;;5076200;28;20031;-68
2021/04/19 07:36:57;;;;;;;45.13;31.25;;;281.80;2278.40;;;;;;5075623;28;20392;-68
2021/04/19 07:39:27;;;;;;;35.90;28.25;;;282.00;2278.40;;;;;;5075573;28;20476;-72
2021/04/19 07:41:55;;;;;;;34.78;27.25;;;281.90;2252.80;;;;;;5075466;28;20388;-69
2021/04/19 07:44:40;;;;;;;44.10;30.25;;;281.90;2252.80;;;;;;5075184;28;20434;-68
2021/04/19 07:47:33;;;;;;;45.88;33.50;;;282.00;2252.80;;;;;;5075445;28;20538;-69
2021/04/19 07:50:11;;;;;;;39.88;33.10;;;282.20;2252.80;;;;;;5075367;28;20413;-71
2021/04/19 07:53:04;;;;;;;37.05;27.85;;;282.10;2227.20;;;;;;5057388;28;20027;-75
2021/04/19 07:55:33;;;;;;;39.22;29.38;;;282.20;2201.60;;;;;;5075252;28;20480;-69
2021/04/19 07:58:01;;;;;;;34.15;27.45;;;282.10;2227.20;;;;;;5075206;28;20480;-68
2021/04/19 08:00:30;;;;;;;38.78;32.50;;;282.30;2227.20;;;;;;5075117;28;20377;-67
2021/04/19 08:03:01;;;;;;;43.35;34.55;;;282.30;2201.60;;;;;;5075008;28;20402;-67
2021/04/19 08:05:31;;;;;;;50.33;38.75;;;282.50;2176.00;;;;;;5057066;28;20499;-72
2021/04/19 08:07:57;;;;;;;36.22;25.40;;;282.50;2176.00;;;;;;5056960;28;20384;-78
2021/04/19 08:10:23;;;;;;;28.40;23.83;;;307.20;2201.60;;;;;;5074885;28;20465;-76
2021/04/19 08:12:52;;;;;;;28.98;22.70;;;307.20;2176.00;;;;;;5056977;28;20430;-68
2021/04/19 08:15:21;;;;;;;29.58;23.85;;;307.20;2176.00;;;;;;5074729;28;20536;-69
2021/04/19 08:17:47;;;;;;;27.05;21.25;;;307.30;2176.00;;;;;;5075108;28;20372;-71
2021/04/19 08:20:15;;;;;;;25.65;22.48;;;307.20;2150.40;;;;;;5075075;28;20357;-71
2021/04/19 08:22:42;;;;;;;28.52;21.42;;;307.20;2124.80;;;;;;5074661;28;20394;-69
2021/04/19 08:25:18;;;;;;;24.92;19.85;;;307.20;2150.40;;;;;;5074620;28;20421;-69
2021/04/19 08:27:48;;;;;;;27.75;22.52;;;307.20;2124.80;;;;;;5074640;28;20369;-71
2021/04/19 08:30:16;;;;;;;32.38;24.73;;;307.30;2150.40;;;;;;5073969;28;20499;-74
2021/04/19 08:32:46;;;;;;;34.95;25.42;;;307.20;2150.40;;;;;;5074547;28;20410;-74
2021/04/19 08:35:13;;;;;;;30.00;22.88;;;307.30;2176.00;;;;;;5074487;28;20473;-74
2021/04/19 08:37:41;;;;;;;36.97;26.45;;;307.30;2150.40;;;;;;5056786;28;20364;-70
2021/04/19 08:40:08;;;;;;;36.40;27.10;;;307.40;2124.80;;;;;;5074395;28;20453;-72
2021/04/19 08:42:36;;;;;;;31.35;23.27;;;307.40;2150.40;;;;;;5074338;28;20461;-74
2021/04/19 08:45:03;;;;;;;23.10;18.60;;;307.50;2099.20;;;;;;5073914;28;20384;-75
2021/04/19 08:47:30;;;;;;;40.05;30.85;;;307.60;2073.60;;;;;;5074525;28;20453;-70
2021/04/19 08:50:00;;;;;;;39.20;22.27;;;307.50;1996.80;;;;;;5074151;28;20360;-71
2021/04/19 08:52:28;;;;;;;80.60;53.22;;;307.50;1996.80;;;;;;5074679;28;20016;-70
2021/04/19 08:54:55;;;;;;;31.60;22.10;;;307.50;2048.00;;;;;;5073982;28;20453;-71
2021/04/19 08:57:23;;;;;;;32.25;23.08;;;307.50;2048.00;;;;;;5056015;28;20342;-70
2021/04/19 08:59:52;;;;;;;27.95;20.80;;;307.60;2073.60;;;;;;5073958;28;20389;-70
2021/04/19 09:02:19;;;;;;;23.27;19.58;;;307.70;2073.60;;;;;;5073872;28;20480;-71
2021/04/19 09:05:08;;;;;;;24.40;20.70;;;307.70;2048.00;;;;;;5074048;28;20453;-72
2021/04/19 09:07:42;;;;;;;22.05;18.63;;;307.60;2073.60;;;;;;5055853;28;20393;-71
2021/04/19 09:10:14;;;;;;;29.80;21.02;;;307.60;2073.60;;;;;;5074030;28;20454;-72
2021/04/19 09:12:40;;;;;;;41.22;28.88;;;307.60;2073.60;;;;;;5073685;28;20427;-73
2021/04/19 09:15:29;;;;;;;27.13;20.60;;;307.60;2073.60;;;;;;5073752;28;20357;-79
2021/04/19 09:18:08;;;;;;;23.42;19.23;;;307.60;2073.60;;;;;;5073731;28;20364;-70
2021/04/19 09:20:45;;;;;;;45.35;31.48;;;307.70;2048.00;;;;;;5073541;28;20460;-73
2021/04/19 09:23:23;;;;;;;25.67;20.60;;;307.70;2073.60;;;;;;5074038;28;20477;-70
2021/04/19 09:25:50;;;;;;;44.50;35.67;;;307.70;2073.60;;;;;;5073454;28;20399;-70
2021/04/19 09:28:41;;;;;;;28.52;22.60;;;307.70;2073.60;;;;;;5073614;28;20362;-70
2021/04/19 09:31:09;;;;;;;25.30;20.15;;;307.70;2073.60;;;;;;5055587;28;20369;-75
2021/04/19 09:33:36;;;;;;;32.05;20.33;;;307.70;2073.60;;;;;;5073519;28;20461;-70
2021/04/19 09:36:03;;;;;;;26.77;20.98;;;307.70;2073.60;;;;;;5073474;28;20392;-72
2021/04/19 09:38:33;;;;;;;28.25;20.60;;;307.70;2073.60;;;;;;5073482;28;20495;-71
2021/04/19 09:41:01;;;;;;;27.08;21.63;;;307.70;2073.60;;;;;;5073299;28;20492;-70
2021/04/19 09:43:33;;;;;;;31.45;23.08;;;307.60;2048.00;;;;;;5073725;28;20520;-70
2021/04/19 09:46:01;;;;;;;29.20;23.55;;;307.60;2073.60;;;;;;5073213;28;20405;-70
2021/04/19 09:48:31;;;;;;;32.25;23.75;;;307.50;2099.20;;;;;;5073428;28;20465;-70
2021/04/19 09:51:05;;;;;;;34.22;24.52;;;307.40;2099.20;;;;;;5073397;28;20369;-71
2021/04/19 09:53:31;;;;;;;39.17;29.73;;;307.30;2124.80;;;;;;5055313;28;20357;-69
2021/04/19 09:55:58;;;;;;;42.00;31.55;;;307.40;2150.40;;;;;;5055252;28;20346;-75
2021/04/19 09:58:26;;;;;;;43.78;33.78;;;307.20;2150.40;;;;;;5073269;28;20372;-73
2021/04/19 10:00:56;;;;;;;60.90;42.40;;;307.20;2176.00;;;;;;5073073;28;20485;-71
2021/04/19 10:03:22;;;;;;;62.95;42.83;;;282.50;2150.40;;;;;;5073210;28;20398;-70
2021/04/19 10:05:59;;;;;;;48.38;36.42;;;307.20;2201.60;;;;;;5073074;28;20373;-70
2021/04/19 10:08:27;;;;;;;47.00;32.78;;;307.20;2176.00;;;;;;5073566;28;20384;-71
2021/04/19 10:10:55;;;;;;;52.53;38.50;;;307.20;2201.60;;;;;;5073117;28;20472;-69
2021/04/19 10:13:33;;;;;;;68.57;51.85;;;282.50;2176.00;;;;;;5073396;28;20453;-70
2021/04/19 10:16:05;;;;;;;85.53;61.00;;;282.50;2176.00;;;;;;5072978;28;20369;-69
2021/04/19 10:18:33;;;;;;;58.65;41.03;;;282.50;2176.00;;;;;;5073115;28;20396;-76
2021/04/19 10:20:59;;;;;;;50.03;35.97;;;282.40;2176.00;;;;;;5073106;28;20392;-75
2021/04/19 10:23:34;;;;;;;49.55;36.10;;;282.50;2176.00;;;;;;5073002;28;20519;-69
2021/04/19 10:26:01;;;;;;;72.93;51.80;;;282.50;2176.00;;;;;;5073006;28;20368;-75
2021/04/19 10:28:33;;;;;;;122.20;89.32;;;282.50;2201.60;;;;;;5072930;28;20524;-70
2021/04/19 10:31:12;;;;;;;65.45;46.28;;;307.20;2227.20;;;;;;5073293;28;20369;-70
2021/04/19 10:33:40;;;;;;;52.88;33.58;;;307.20;2201.60;;;;;;5073193;28;20421;-71
2021/04/19 10:36:24;;;;;;;72.93;48.92;;;307.20;2201.60;;;;;;5072819;28;20361;-70
2021/04/19 10:38:55;;;;;;;56.83;42.00;;;282.40;2176.00;;;;;;5072923;28;20473;-70
2021/04/19 10:41:32;;;;;;;138.73;100.57;;;282.30;2227.20;;;;;;5073246;28;20368;-70
2021/04/19 10:43:59;;;;;;;72.63;53.30;;;282.30;2201.60;;;;;;5072660;28;20464;-70
2021/04/19 10:46:31;;;;;;;68.55;49.67;;;282.30;2227.20;;;;;;5073144;28;20479;-72
2021/04/19 10:48:59;;;;;;;46.55;37.47;;;282.20;2201.60;;;;;;5072796;28;20407;-74
2021/04/19 10:51:31;;;;;;;38.35;30.77;;;282.10;2227.20;;;;;;5073118;28;20534;-71
2021/04/19 10:54:00;;;;;;;39.28;30.20;;;282.00;2252.80;;;;;;5076501;28;20338;-70
2021/04/19 10:56:27;;;;;;;41.22;33.10;;;282.10;2227.20;;;;;;5076325;28;20350;-70
2021/04/19 10:58:56;;;;;;;41.33;30.98;;;282.20;2227.20;;;;;;5076343;28;20508;-70
2021/04/19 11:01:30;;;;;;;38.38;29.73;;;282.20;2227.20;;;;;;5076277;28;20441;-70
2021/04/19 11:03:59;;;;;;;29.00;20.52;;;282.20;2201.60;;;;;;5076268;28;20538;-70
2021/04/19 11:06:25;;;;;;;30.55;22.45;;;282.20;2124.80;;;;;;5076078;28;20397;-70
2021/04/19 11:09:17;;;;;;;35.80;25.95;;;282.10;2124.80;;;;;;5076053;28;20530;-75
2021/04/19 11:11:46;;;;;;;35.42;27.67;;;282.10;2201.60;;;;;;5076447;28;20480;-69
2021/04/19 11:14:22;;;;;;;35.05;27.67;;;282.20;2201.60;;;;;;5076234;28;20380;-77
2021/04/19 11:17:03;;;;;;;39.67;29.00;;;282.30;2176.00;;;;;;5076070;28;20372;-70
2021/04/19 11:19:45;;;;;;;41.78;29.17;;;282.50;2150.40;;;;;;5076193;28;20357;-74
2021/04/19 11:22:33;;;;;;;37.20;30.30;;;307.20;2176.00;;;;;;5075949;28;20492;-70
2021/04/19 11:25:24;;;;;;;35.55;24.95;;;282.50;2124.80;;;;;;5075784;28;20484;-70
2021/04/19 11:28:20;;;;;;;31.20;24.40;;;307.20;2124.80;;;;;;5075787;28;20457;-69
2021/04/19 11:30:49;;;;;;;35.95;25.58;;;307.30;2124.80;;;;;;5067649;28;20431;-70
2021/04/19 11:33:25;;;;;;;38.47;26.60;;;307.50;2124.80;;;;;;5075607;28;20412;-69
2021/04/19 11:35:59;;;;;;;39.47;27.38;;;307.50;2124.80;;;;;;5075681;28;20489;-77
2021/04/19 11:38:26;;;;;;;33.95;25.90;;;307.60;2099.20;;;;;;5057677;28;20023;-72
2021/04/19 11:40:59;;;;;;;32.25;25.77;;;307.60;2099.20;;;;;;5075519;28;20461;-70
2021/04/19 11:43:26;;;;;;;35.65;25.02;;;307.70;2073.60;;;;;;5075354;28;20567;-72
2021/04/19 11:46:05;;;;;;;34.33;25.52;;;307.70;2073.60;;;;;;5075094;28;20560;-71
2021/04/19 11:48:33;;;;;;;33.47;25.08;;;307.60;2099.20;;;;;;5058202;28;20341;-74
2021/04/19 11:51:00;;;;;;;31.63;23.25;;;307.70;2099.20;;;;;;5075259;28;20434;-74
2021/04/19 11:53:31;;;;;;;40.58;24.55;;;307.70;2099.20;;;;;;5075442;28;20103;-81
2021/04/19 11:55:58;;;;;;;29.88;23.20;;;307.60;2099.20;;;;;;5075275;28;20525;-75
2021/04/19 11:58:25;;;;;;;35.42;25.10;;;307.60;2099.20;;;;;;5075246;28;20334;-73
2021/04/19 12:00:54;;;;;;;37.17;24.40;;;307.60;2124.80;;;;;;5074931;28;20462;-74
2021/04/19 12:03:21;;;;;;;38.92;26.80;;;307.60;2124.80;;;;;;5074838;28;20413;-73
2021/04/19 12:05:47;;;;;;;39.85;27.17;;;307.70;2124.80;;;;;;5074952;28;20354;-70
2021/04/19 12:08:14;;;;;;;45.15;27.77;;;307.70;2124.80;;;;;;5074989;28;20450;-73
2021/04/19 12:10:41;;;;;;;39.42;26.33;;;307.60;2124.80;;;;;;5074955;28;20412;-74
2021/04/19 12:13:11;;;;;;;39.70;22.67;;;307.60;2124.80;;;;;;5074605;28;20376;-74
2021/04/19 12:15:37;;;;;;;29.88;19.15;;;307.70;2073.60;;;;;;5074847;28;20483;-70
2021/04/19 12:18:03;;;;;;;33.17;23.02;;;307.80;2048.00;;;;;;5074822;28;20360;-71